ASN logo
ASN Wikibase Occurrence # 173073
Last updated: 9 May 2019
This information is added by users of ASN. Neither ASN nor the Flight Safety Foundation are responsible for the completeness or correctness of this information. If you feel this information is incomplete or incorrect, you can submit corrected information.

Date:17-JAN-2015
Time:21:20
Type:Silhouette image of generic A346 model; specific model in this crash may look slightly different
Airbus A340-642
Owner/operator:Lufthansa
Registration: D-AIHM
C/n / msn: 762
Fatalities:Fatalities: 0 / Occupants:
Other fatalities:0
Aircraft damage: Unknown
Location:Bogotá-Eldorado Airport (BOG/SKBO) -   Colombia
Phase: Taxi
Nature:International Scheduled Passenger
Departure airport:Bogotá-Eldorado Airport (BOG/SKBO)
Destination airport:Frankfurt International Airport (FRA/EDDF)
Narrative:
An Airbus A340-642, operating by Lufthansa flight LH543 from Bogotá, Colombia to Frankfurt, Germany, became stuck when the main undercarriage ran into grassy terrain at Bogotá's Eldorado Airport.
The airplane was taxiing towards the departure runway 13R when the incident happened.

METAR around the incident time (21:20 LT / 02:20 Z):
SKBO 180200Z VRB02KT 9999 SCT017 BKN080 12/10 A3037 REDZ
SKBO 180210Z 05005KT 9999 -DZ SCT017 BKN080 11/10 A3038

Sources:

GRIAA


Images:

Photo of D-AIHM courtesy AirHistory.net


Munich (EDDM / MUC)
13 May 2011; (c) Juhani Sipilä

Revision history:

Date/timeContributorUpdates
18-Jan-2015 07:51 harro Added
18-Jan-2015 07:55 harro Updated
18-Jan-2015 08:10 harro Updated
18-Jan-2015 08:14 harro Updated

Corrections or additions? ... Edit this accident description